createdAt,value
2023-03-12T00:04:12.276Z,5.34
2023-03-12T00:13:17.043Z,5.27
2023-03-12T00:22:20.237Z,5.26
2023-03-12T00:26:30.869Z,5.28
2023-03-12T00:30:55.315Z,5.22
2023-03-12T00:35:27.304Z,5.27
2023-03-12T00:40:10.357Z,5.17
2023-03-12T00:44:20.521Z,5.17
2023-03-12T00:48:35.457Z,5.13
2023-03-12T00:53:08.398Z,5.10
2023-03-12T00:57:47.748Z,4.99
2023-03-12T01:02:25.920Z,5.05
2023-03-12T01:06:44.374Z,5.00
2023-03-12T01:11:00.860Z,4.91
2023-03-12T01:15:11.113Z,4.92
2023-03-12T01:24:03.554Z,4.88
2023-03-12T01:28:18.187Z,4.81
2023-03-12T01:36:49.294Z,4.80
2023-03-12T01:40:58.906Z,4.75
2023-03-12T01:45:07.004Z,4.65
2023-03-12T01:49:35.273Z,4.60
2023-03-12T02:02:48.104Z,4.43
2023-03-12T02:07:09.836Z,4.44
2023-03-12T02:11:13.891Z,4.44
2023-03-12T02:15:21.717Z,4.38
2023-03-12T02:19:33.606Z,4.44
2023-03-12T02:28:07.822Z,4.24
2023-03-12T02:32:29.466Z,4.21
2023-03-12T02:36:34.497Z,4.18
2023-03-12T02:40:51.538Z,4.14
2023-03-12T02:45:32.631Z,4.06
2023-03-12T02:49:39.624Z,4.03
2023-03-12T02:54:38.629Z,4.08
2023-03-12T02:59:16.250Z,4.04
2023-03-12T03:03:30.104Z,3.96
2023-03-12T03:07:47.865Z,3.95
2023-03-12T03:12:05.277Z,3.94
2023-03-12T03:16:13.556Z,3.86
2023-03-12T03:20:18.442Z,3.84
2023-03-12T03:24:47.959Z,3.85
2023-03-12T03:29:28.640Z,3.90
2023-03-12T03:38:25.947Z,3.74
2023-03-12T03:47:45.639Z,3.68
2023-03-12T03:52:41.883Z,3.66
2023-03-12T03:57:35.377Z,3.64
2023-03-12T04:02:41.794Z,3.55
2023-03-12T04:07:14.278Z,3.58
2023-03-12T04:11:32.335Z,3.50
2023-03-12T04:16:17.489Z,3.46
2023-03-12T04:41:23.830Z,3.39
2023-03-12T04:46:32.096Z,3.35
2023-03-12T04:51:18.470Z,3.22
2023-03-12T05:02:00.126Z,3.20
2023-03-12T05:12:04.085Z,3.32
2023-03-12T05:21:42.840Z,3.30
2023-03-12T05:26:12.157Z,3.22
2023-03-12T05:30:37.144Z,3.21
2023-03-12T05:34:40.370Z,3.25
2023-03-12T05:38:45.753Z,3.27
2023-03-12T05:48:21.042Z,3.42
2023-03-12T05:52:31.185Z,3.38
2023-03-12T05:57:00.896Z,3.39
2023-03-12T06:01:24.680Z,3.38
2023-03-12T06:05:27.778Z,3.59
2023-03-12T06:15:06.447Z,3.86
2023-03-12T06:18:37.795Z,4.00
2023-03-12T06:23:02.812Z,4.28
2023-03-12T06:27:24.020Z,4.40
2023-03-12T06:31:37.231Z,4.71
2023-03-12T06:35:46.733Z,4.93
2023-03-12T06:39:47.679Z,4.93
2023-03-12T06:43:49.540Z,4.90
2023-03-12T06:47:50.498Z,5.01
2023-03-12T06:51:59.118Z,5.18
2023-03-12T06:56:00.059Z,5.24
2023-03-12T07:00:05.112Z,5.42
2023-03-12T07:04:12.618Z,5.55
2023-03-12T07:08:19.215Z,5.78
2023-03-12T07:12:22.197Z,5.58
2023-03-12T07:16:42.423Z,5.75
2023-03-12T07:20:48.287Z,5.81
2023-03-12T07:25:12.473Z,5.92
2023-03-12T07:29:25.900Z,6.08
2023-03-12T07:33:36.597Z,6.30
2023-03-12T07:37:38.464Z,6.22
2023-03-12T07:41:45.363Z,6.45
2023-03-12T07:45:57.454Z,6.52
2023-03-12T07:50:11.164Z,6.44
2023-03-12T07:54:11.990Z,6.47
2023-03-12T07:58:19.520Z,6.92
2023-03-12T08:02:20.593Z,6.90
2023-03-12T08:06:42.979Z,6.82
2023-03-12T08:10:44.512Z,6.98
2023-03-12T08:14:49.151Z,7.07
2023-03-12T08:18:57.870Z,7.14
2023-03-12T08:23:01.713Z,7.03
2023-03-12T08:27:29.771Z,7.30
2023-03-12T08:36:27.200Z,7.47
2023-03-12T08:40:30.113Z,7.43
2023-03-12T08:45:17.958Z,7.49
2023-03-12T10:11:19.366Z,9.22
2023-03-12T10:15:35.057Z,9.29
2023-03-12T10:20:15.392Z,9.55
2023-03-12T10:24:50.030Z,9.58
2023-03-12T10:29:07.847Z,9.47
2023-03-12T10:33:29.198Z,9.09
2023-03-12T10:37:44.654Z,9.13
2023-03-12T10:42:01.820Z,8.93
2023-03-12T10:46:33.968Z,8.92
2023-03-12T10:50:39.664Z,9.03
2023-03-12T10:54:45.121Z,9.16
2023-03-12T10:59:24.245Z,8.97
2023-03-12T11:03:25.827Z,9.32
2023-03-12T11:07:45.079Z,8.88
2023-03-12T11:12:06.668Z,8.96
2023-03-12T11:16:32.000Z,9.16
2023-03-12T11:20:37.106Z,9.57
2023-03-12T11:24:58.491Z,9.80
2023-03-12T11:29:19.550Z,10.18
2023-03-12T11:33:51.224Z,10.08
2023-03-12T11:38:27.318Z,9.97
2023-03-12T11:43:03.005Z,10.39
2023-03-12T11:47:44.244Z,10.35
2023-03-12T11:52:16.155Z,10.64
2023-03-12T11:57:13.502Z,10.72
2023-03-12T12:01:43.431Z,11.48
2023-03-12T12:07:03.940Z,11.94
2023-03-12T12:17:12.035Z,11.20
2023-03-12T12:22:03.679Z,11.01
2023-03-12T12:26:45.180Z,11.71
2023-03-12T12:31:29.067Z,11.55
2023-03-12T12:36:04.914Z,11.75
2023-03-12T12:41:18.244Z,12.46
2023-03-12T12:51:17.376Z,12.92
2023-03-12T12:55:55.183Z,12.58
2023-03-12T13:11:17.137Z,12.70
2023-03-12T13:20:51.443Z,13.20
2023-03-12T13:30:25.016Z,12.58
2023-03-12T13:35:26.354Z,12.49
2023-03-12T13:40:12.643Z,12.69
2023-03-12T13:45:12.483Z,12.58
2023-03-12T13:51:45.429Z,12.73
2023-03-12T14:00:39.248Z,13.05
2023-03-12T14:05:23.598Z,13.81
2023-03-12T14:10:14.886Z,13.77
2023-03-12T14:15:06.768Z,13.79
2023-03-12T14:19:40.803Z,13.93
2023-03-12T14:24:56.787Z,13.46
2023-03-12T14:29:49.764Z,12.86
2023-03-12T14:39:53.072Z,12.26
2023-03-12T14:44:41.777Z,12.17
2023-03-12T14:59:40.573Z,12.11
2023-03-12T15:04:32.718Z,12.04
2023-03-12T15:13:53.356Z,12.15
2023-03-12T15:18:37.558Z,11.99
2023-03-12T15:28:48.398Z,11.79
2023-03-12T15:33:42.872Z,11.86
2023-03-12T15:43:10.172Z,11.90
2023-03-12T15:48:03.867Z,11.85
2023-03-12T15:53:01.167Z,11.99
2023-03-12T15:57:50.314Z,12.23
2023-03-12T16:02:23.118Z,12.38
2023-03-12T16:06:48.359Z,12.65
2023-03-12T16:16:52.166Z,12.09
2023-03-12T16:26:30.338Z,12.66
2023-03-12T16:40:54.830Z,13.14
2023-03-12T16:50:39.163Z,13.13
2023-03-12T17:19:10.189Z,12.33
2023-03-12T17:34:31.770Z,11.38
2023-03-12T17:39:41.266Z,11.33
2023-03-12T17:49:43.907Z,11.10
2023-03-12T18:05:40.118Z,10.81
2023-03-12T18:11:05.972Z,10.53
2023-03-12T18:15:59.943Z,10.45
2023-03-12T18:52:11.895Z,8.85
2023-03-12T19:03:26.892Z,8.13
2023-03-12T19:18:15.492Z,7.26
2023-03-12T19:43:40.983Z,7.18
2023-03-12T19:48:22.784Z,6.99
2023-03-12T19:53:18.309Z,6.92
2023-03-12T19:57:46.163Z,7.05
2023-03-12T20:02:55.209Z,6.91
2023-03-12T20:09:01.000Z,6.76
2023-03-12T20:23:27.929Z,6.57
2023-03-12T20:53:57.785Z,7.24
2023-03-12T20:58:41.570Z,7.00
2023-03-12T21:03:42.609Z,6.48
2023-03-12T21:08:30.360Z,5.80
2023-03-12T21:18:39.054Z,6.45
2023-03-12T21:23:25.337Z,6.95
2023-03-12T21:28:22.364Z,6.73
2023-03-12T21:38:19.970Z,6.44
2023-03-12T21:44:03.300Z,7.06
2023-03-12T21:48:28.027Z,7.56
2023-03-12T21:53:37.772Z,7.71
2023-03-12T22:05:30.381Z,7.56
2023-03-12T22:43:10.957Z,7.05
2023-03-12T22:46:27.763Z,6.96
2023-03-12T23:09:44.473Z,6.62
2023-03-12T23:14:48.304Z,6.55
2023-03-12T23:57:38.557Z,6.13
